sensor_id;sensor_type;location;lat;lon;timestamp;temperature;humidity
26589;DHT22;14235;48.532;8.722;2023-06-14T00:01:17;15.00;90.30
26589;DHT22;14235;48.532;8.722;2023-06-14T00:03:45;15.00;91.10
26589;DHT22;14235;48.532;8.722;2023-06-14T00:06:12;15.00;92.30
26589;DHT22;14235;48.532;8.722;2023-06-14T00:13:33;14.80;95.20
26589;DHT22;14235;48.532;8.722;2023-06-14T00:15:58;14.70;91.10
26589;DHT22;14235;48.532;8.722;2023-06-14T00:18:24;14.80;91.40
26589;DHT22;14235;48.532;8.722;2023-06-14T00:25:48;14.40;92.90
26589;DHT22;14235;48.532;8.722;2023-06-14T00:28:13;14.40;88.00
26589;DHT22;14235;48.532;8.722;2023-06-14T00:30:39;14.10;91.00
26589;DHT22;14235;48.532;8.722;2023-06-14T00:33:05;14.20;91.00
26589;DHT22;14235;48.532;8.722;2023-06-14T00:42:50;13.90;77.60
26589;DHT22;14235;48.532;8.722;2023-06-14T00:45:16;14.10;78.60
26589;DHT22;14235;48.532;8.722;2023-06-14T00:47:43;14.00;78.20
26589;DHT22;14235;48.532;8.722;2023-06-14T00:50:09;14.00;78.60
26589;DHT22;14235;48.532;8.722;2023-06-14T00:52:35;14.20;79.90
26589;DHT22;14235;48.532;8.722;2023-06-14T00:55:02;14.10;82.20
26589;DHT22;14235;48.532;8.722;2023-06-14T00:57:27;13.80;86.90
26589;DHT22;14235;48.532;8.722;2023-06-14T00:59:55;13.90;93.10
26589;DHT22;14235;48.532;8.722;2023-06-14T01:02:21;13.80;95.20
26589;DHT22;14235;48.532;8.722;2023-06-14T01:04:47;13.90;87.20
26589;DHT22;14235;48.532;8.722;2023-06-14T01:12:57;13.80;85.90
26589;DHT22;14235;48.532;8.722;2023-06-14T01:15:24;13.80;87.10
26589;DHT22;14235;48.532;8.722;2023-06-14T01:17:51;13.70;86.30
26589;DHT22;14235;48.532;8.722;2023-06-14T01:20:19;13.90;86.60
26589;DHT22;14235;48.532;8.722;2023-06-14T01:22:52;13.80;86.50
26589;DHT22;14235;48.532;8.722;2023-06-14T01:25:22;13.80;86.40
26589;DHT22;14235;48.532;8.722;2023-06-14T01:28:03;13.90;86.80
26589;DHT22;14235;48.532;8.722;2023-06-14T01:30:30;14.20;88.80
26589;DHT22;14235;48.532;8.722;2023-06-14T01:32:59;13.50;87.70
26589;DHT22;14235;48.532;8.722;2023-06-14T01:35:25;13.40;86.60
26589;DHT22;14235;48.532;8.722;2023-06-14T01:40:18;14.00;90.70
26589;DHT22;14235;48.532;8.722;2023-06-14T01:42:49;13.40;90.00
26589;DHT22;14235;48.532;8.722;2023-06-14T01:45:15;13.20;90.50
26589;DHT22;14235;48.532;8.722;2023-06-14T01:47:41;13.20;92.50
26589;DHT22;14235;48.532;8.722;2023-06-14T01:57:27;12.90;96.60
26589;DHT22;14235;48.532;8.722;2023-06-14T01:59:53;12.90;94.10
26589;DHT22;14235;48.532;8.722;2023-06-14T02:02:19;12.80;93.50
26589;DHT22;14235;48.532;8.722;2023-06-14T02:04:44;12.90;93.10
26589;DHT22;14235;48.532;8.722;2023-06-14T02:07:12;12.80;95.20
26589;DHT22;14235;48.532;8.722;2023-06-14T02:14:31;12.60;94.50
26589;DHT22;14235;48.532;8.722;2023-06-14T02:16:57;12.50;95.10
26589;DHT22;14235;48.532;8.722;2023-06-14T02:21:48;12.40;93.90
26589;DHT22;14235;48.532;8.722;2023-06-14T02:24:14;12.50;93.30
26589;DHT22;14235;48.532;8.722;2023-06-14T02:26:40;12.60;92.90
26589;DHT22;14235;48.532;8.722;2023-06-14T02:29:08;12.50;93.00
26589;DHT22;14235;48.532;8.722;2023-06-14T02:31:40;12.60;94.30
26589;DHT22;14235;48.532;8.722;2023-06-14T02:34:06;12.40;93.50
26589;DHT22;14235;48.532;8.722;2023-06-14T02:36:34;12.40;92.00
26589;DHT22;14235;48.532;8.722;2023-06-14T02:39:00;12.60;92.30
26589;DHT22;14235;48.532;8.722;2023-06-14T02:41:26;11.90;91.80
26589;DHT22;14235;48.532;8.722;2023-06-14T02:43:55;12.70;92.20
26589;DHT22;14235;48.532;8.722;2023-06-14T02:46:21;12.20;92.40
26589;DHT22;14235;48.532;8.722;2023-06-14T02:48:47;12.20;93.50
26589;DHT22;14235;48.532;8.722;2023-06-14T02:53:38;11.20;91.60
26589;DHT22;14235;48.532;8.722;2023-06-14T02:56:04;12.10;92.50
26589;DHT22;14235;48.532;8.722;2023-06-14T03:05:50;12.00;93.00
26589;DHT22;14235;48.532;8.722;2023-06-14T03:08:16;12.10;92.80
26589;DHT22;14235;48.532;8.722;2023-06-14T03:10:47;11.90;91.80
26589;DHT22;14235;48.532;8.722;2023-06-14T03:13:13;11.90;92.10
26589;DHT22;14235;48.532;8.722;2023-06-14T03:15:39;12.00;92.20
26589;DHT22;14235;48.532;8.722;2023-06-14T03:30:21;11.40;94.00
26589;DHT22;14235;48.532;8.722;2023-06-14T03:35:12;11.70;95.60
26589;DHT22;14235;48.532;8.722;2023-06-14T03:37:43;11.60;92.60
26589;DHT22;14235;48.532;8.722;2023-06-14T03:40:09;11.60;92.00
26589;DHT22;14235;48.532;8.722;2023-06-14T03:42:35;11.60;92.20
26589;DHT22;14235;48.532;8.722;2023-06-14T04:06:56;11.40;99.90
26589;DHT22;14235;48.532;8.722;2023-06-14T04:09:26;11.50;92.70
26589;DHT22;14235;48.532;8.722;2023-06-14T04:11:55;11.40;93.10
26589;DHT22;14235;48.532;8.722;2023-06-14T04:14:21;11.40;94.10
26589;DHT22;14235;48.532;8.722;2023-06-14T04:16:48;11.40;95.70
26589;DHT22;14235;48.532;8.722;2023-06-14T04:46:27;11.30;97.40
26589;DHT22;14235;48.532;8.722;2023-06-14T04:48:54;11.40;95.10
26589;DHT22;14235;48.532;8.722;2023-06-14T04:51:20;11.40;95.40
26589;DHT22;14235;48.532;8.722;2023-06-14T04:53:47;11.40;95.70
26589;DHT22;14235;48.532;8.722;2023-06-14T05:23:07;11.80;96.40
26589;DHT22;14235;48.532;8.722;2023-06-14T05:25:32;11.90;96.50
26589;DHT22;14235;48.532;8.722;2023-06-14T05:27:58;12.00;96.40
26589;DHT22;14235;48.532;8.722;2023-06-14T05:30:23;12.10;96.40
26589;DHT22;14235;48.532;8.722;2023-06-14T05:32:49;12.20;96.50
26589;DHT22;14235;48.532;8.722;2023-06-14T05:35:15;12.50;96.60
26589;DHT22;14235;48.532;8.722;2023-06-14T05:37:41;12.30;96.60
26589;DHT22;14235;48.532;8.722;2023-06-14T05:40:07;12.40;97.00
26589;DHT22;14235;48.532;8.722;2023-06-14T05:42:34;12.50;96.90
26589;DHT22;14235;48.532;8.722;2023-06-14T05:44:59;12.60;96.80
26589;DHT22;14235;48.532;8.722;2023-06-14T05:47:26;12.50;96.80
26589;DHT22;14235;48.532;8.722;2023-06-14T05:49:53;12.70;97.10
26589;DHT22;14235;48.532;8.722;2023-06-14T05:52:18;12.90;96.90
26589;DHT22;14235;48.532;8.722;2023-06-14T05:54:44;13.00;97.00
26589;DHT22;14235;48.532;8.722;2023-06-14T05:57:10;13.10;97.20
26589;DHT22;14235;48.532;8.722;2023-06-14T05:59:35;12.90;97.20
26589;DHT22;14235;48.532;8.722;2023-06-14T08:40:30;19.30;52.80
26589;DHT22;14235;48.532;8.722;2023-06-14T08:42:57;19.30;52.90
26589;DHT22;14235;48.532;8.722;2023-06-14T08:45:24;19.30;52.10
26589;DHT22;14235;48.532;8.722;2023-06-14T08:47:51;19.30;51.70
26589;DHT22;14235;48.532;8.722;2023-06-14T08:50:26;19.40;51.70
26589;DHT22;14235;48.532;8.722;2023-06-14T08:53:01;19.40;52.00
26589;DHT22;14235;48.532;8.722;2023-06-14T08:55:28;19.50;51.50
26589;DHT22;14235;48.532;8.722;2023-06-14T08:57:56;19.50;51.70
26589;DHT22;14235;48.532;8.722;2023-06-14T09:00:26;19.50;51.80
26589;DHT22;14235;48.532;8.722;2023-06-14T09:02:53;19.50;51.60
26589;DHT22;14235;48.532;8.722;2023-06-14T09:05:24;19.60;51.40
26589;DHT22;14235;48.532;8.722;2023-06-14T09:07:50;19.70;52.30
26589;DHT22;14235;48.532;8.722;2023-06-14T09:10:16;19.80;51.60
26589;DHT22;14235;48.532;8.722;2023-06-14T09:12:42;19.80;51.20
26589;DHT22;14235;48.532;8.722;2023-06-14T09:15:08;19.80;51.50
26589;DHT22;14235;48.532;8.722;2023-06-14T09:17:38;19.90;51.00
26589;DHT22;14235;48.532;8.722;2023-06-14T09:20:05;19.90;51.20
26589;DHT22;14235;48.532;8.722;2023-06-14T09:22:32;20.00;51.00
26589;DHT22;14235;48.532;8.722;2023-06-14T09:24:59;20.00;50.70
26589;DHT22;14235;48.532;8.722;2023-06-14T09:27:31;20.00;50.50
26589;DHT22;14235;48.532;8.722;2023-06-14T09:29:56;20.00;49.90
26589;DHT22;14235;48.532;8.722;2023-06-14T09:32:22;20.00;48.60
26589;DHT22;14235;48.532;8.722;2023-06-14T09:34:48;20.10;48.30
26589;DHT22;14235;48.532;8.722;2023-06-14T09:37:27;20.10;49.80
26589;DHT22;14235;48.532;8.722;2023-06-14T09:39:53;20.20;49.50
26589;DHT22;14235;48.532;8.722;2023-06-14T09:42:19;20.30;49.30
26589;DHT22;14235;48.532;8.722;2023-06-14T09:44:48;20.30;48.20
26589;DHT22;14235;48.532;8.722;2023-06-14T09:47:15;20.50;47.70
26589;DHT22;14235;48.532;8.722;2023-06-14T09:49:42;20.50;48.40
26589;DHT22;14235;48.532;8.722;2023-06-14T09:52:10;20.50;48.40
26589;DHT22;14235;48.532;8.722;2023-06-14T09:54:43;20.50;48.60
26589;DHT22;14235;48.532;8.722;2023-06-14T09:57:14;20.60;48.40
26589;DHT22;14235;48.532;8.722;2023-06-14T09:59:42;20.60;48.20
26589;DHT22;14235;48.532;8.722;2023-06-14T10:02:22;20.60;48.30
26589;DHT22;14235;48.532;8.722;2023-06-14T10:07:35;20.70;47.80
26589;DHT22;14235;48.532;8.722;2023-06-14T10:10:04;20.70;47.50
26589;DHT22;14235;48.532;8.722;2023-06-14T10:12:31;20.70;47.20
26589;DHT22;14235;48.532;8.722;2023-06-14T10:14:57;20.70;47.40
26589;DHT22;14235;48.532;8.722;2023-06-14T10:17:43;20.70;47.60
26589;DHT22;14235;48.532;8.722;2023-06-14T10:23:07;20.80;48.00
26589;DHT22;14235;48.532;8.722;2023-06-14T10:25:34;20.90;48.50
26589;DHT22;14235;48.532;8.722;2023-06-14T10:28:20;21.00;48.30
26589;DHT22;14235;48.532;8.722;2023-06-14T10:31:10;21.10;48.20
26589;DHT22;14235;48.532;8.722;2023-06-14T10:33:48;21.20;47.20
26589;DHT22;14235;48.532;8.722;2023-06-14T10:36:30;21.30;47.20
26589;DHT22;14235;48.532;8.722;2023-06-14T10:41:27;21.30;47.70
26589;DHT22;14235;48.532;8.722;2023-06-14T10:44:10;21.50;46.60
26589;DHT22;14235;48.532;8.722;2023-06-14T10:46:36;21.50;46.10
26589;DHT22;14235;48.532;8.722;2023-06-14T10:49:01;21.50;47.10
26589;DHT22;14235;48.532;8.722;2023-06-14T10:51:29;21.50;46.70
26589;DHT22;14235;48.532;8.722;2023-06-14T10:53:58;21.50;46.80
26589;DHT22;14235;48.532;8.722;2023-06-14T10:56:31;21.50;46.60
26589;DHT22;14235;48.532;8.722;2023-06-14T10:58:58;21.50;46.00
26589;DHT22;14235;48.532;8.722;2023-06-14T11:01:41;21.50;46.50
26589;DHT22;14235;48.532;8.722;2023-06-14T11:04:12;21.50;46.60
26589;DHT22;14235;48.532;8.722;2023-06-14T11:06:47;21.50;45.60
26589;DHT22;14235;48.532;8.722;2023-06-14T11:12:11;21.60;46.40
26589;DHT22;14235;48.532;8.722;2023-06-14T11:14:38;21.70;46.20
26589;DHT22;14235;48.532;8.722;2023-06-14T11:17:05;21.80;47.10
26589;DHT22;14235;48.532;8.722;2023-06-14T11:19:30;21.90;47.60
26589;DHT22;14235;48.532;8.722;2023-06-14T11:21:57;21.90;46.10
26589;DHT22;14235;48.532;8.722;2023-06-14T11:24:22;21.90;46.50
26589;DHT22;14235;48.532;8.722;2023-06-14T11:26:48;21.90;45.40
26589;DHT22;14235;48.532;8.722;2023-06-14T11:29:15;22.00;43.50
26589;DHT22;14235;48.532;8.722;2023-06-14T11:31:45;22.00;44.70
26589;DHT22;14235;48.532;8.722;2023-06-14T11:34:12;22.10;45.40
26589;DHT22;14235;48.532;8.722;2023-06-14T11:36:38;22.20;45.60
26589;DHT22;14235;48.532;8.722;2023-06-14T11:39:08;22.20;45.30
26589;DHT22;14235;48.532;8.722;2023-06-14T11:41:40;22.30;44.80
26589;DHT22;14235;48.532;8.722;2023-06-14T11:44:06;22.40;43.40
26589;DHT22;14235;48.532;8.722;2023-06-14T11:46:32;22.40;43.50
26589;DHT22;14235;48.532;8.722;2023-06-14T11:48:58;22.50;43.20
26589;DHT22;14235;48.532;8.722;2023-06-14T11:51:24;22.50;43.80
26589;DHT22;14235;48.532;8.722;2023-06-14T11:53:50;22.60;44.60
26589;DHT22;14235;48.532;8.722;2023-06-14T11:56:16;22.70;45.30
26589;DHT22;14235;48.532;8.722;2023-06-14T11:58:45;22.70;46.00
26589;DHT22;14235;48.532;8.722;2023-06-14T12:01:16;22.80;45.00
26589;DHT22;14235;48.532;8.722;2023-06-14T12:03:48;22.90;45.80
26589;DHT22;14235;48.532;8.722;2023-06-14T12:06:14;23.00;44.20
26589;DHT22;14235;48.532;8.722;2023-06-14T12:08:40;23.10;44.80
26589;DHT22;14235;48.532;8.722;2023-06-14T12:11:12;23.20;44.30
26589;DHT22;14235;48.532;8.722;2023-06-14T12:13:39;23.20;45.50
26589;DHT22;14235;48.532;8.722;2023-06-14T12:16:11;23.30;46.90
26589;DHT22;14235;48.532;8.722;2023-06-14T12:18:39;23.40;51.20
26589;DHT22;14235;48.532;8.722;2023-06-14T12:21:05;23.50;47.20
26589;DHT22;14235;48.532;8.722;2023-06-14T12:23:48;23.50;49.20
26589;DHT22;14235;48.532;8.722;2023-06-14T12:26:15;23.50;51.80
26589;DHT22;14235;48.532;8.722;2023-06-14T12:28:42;23.50;46.60
26589;DHT22;14235;48.532;8.722;2023-06-14T12:31:15;23.40;46.60
26589;DHT22;14235;48.532;8.722;2023-06-14T12:33:42;23.40;44.40
26589;DHT22;14235;48.532;8.722;2023-06-14T12:36:08;23.40;44.20
26589;DHT22;14235;48.532;8.722;2023-06-14T12:38:35;23.40;44.10
26589;DHT22;14235;48.532;8.722;2023-06-14T12:41:01;23.30;46.20
26589;DHT22;14235;48.532;8.722;2023-06-14T12:43:27;23.40;43.70
26589;DHT22;14235;48.532;8.722;2023-06-14T12:45:53;23.40;43.90
26589;DHT22;14235;48.532;8.722;2023-06-14T12:48:19;23.60;43.10
26589;DHT22;14235;48.532;8.722;2023-06-14T12:50:45;23.40;43.00
26589;DHT22;14235;48.532;8.722;2023-06-14T12:53:10;23.50;43.40
26589;DHT22;14235;48.532;8.722;2023-06-14T12:55:36;23.50;43.20
26589;DHT22;14235;48.532;8.722;2023-06-14T12:58:02;23.60;42.90
26589;DHT22;14235;48.532;8.722;2023-06-14T13:00:27;23.60;43.20
26589;DHT22;14235;48.532;8.722;2023-06-14T13:02:55;23.60;45.30
26589;DHT22;14235;48.532;8.722;2023-06-14T13:05:21;23.60;44.80
26589;DHT22;14235;48.532;8.722;2023-06-14T13:07:46;23.70;43.10
26589;DHT22;14235;48.532;8.722;2023-06-14T13:10:12;23.70;43.40
26589;DHT22;14235;48.532;8.722;2023-06-14T13:12:38;23.80;42.10
26589;DHT22;14235;48.532;8.722;2023-06-14T13:15:03;23.90;42.60
26589;DHT22;14235;48.532;8.722;2023-06-14T13:17:29;23.90;42.80
26589;DHT22;14235;48.532;8.722;2023-06-14T13:19:55;23.90;43.80
26589;DHT22;14235;48.532;8.722;2023-06-14T13:22:20;24.00;46.40
26589;DHT22;14235;48.532;8.722;2023-06-14T13:24:47;24.10;49.30
26589;DHT22;14235;48.532;8.722;2023-06-14T13:27:12;24.20;41.50
26589;DHT22;14235;48.532;8.722;2023-06-14T13:29:39;24.20;41.10
26589;DHT22;14235;48.532;8.722;2023-06-14T13:32:05;24.30;42.60
26589;DHT22;14235;48.532;8.722;2023-06-14T13:34:31;24.40;41.60
26589;DHT22;14235;48.532;8.722;2023-06-14T13:36:57;24.50;40.80
26589;DHT22;14235;48.532;8.722;2023-06-14T13:39:25;24.70;40.90
26589;DHT22;14235;48.532;8.722;2023-06-14T13:41:50;24.80;41.90
26589;DHT22;14235;48.532;8.722;2023-06-14T13:44:16;24.90;41.20
26589;DHT22;14235;48.532;8.722;2023-06-14T13:46:44;25.00;40.90
26589;DHT22;14235;48.532;8.722;2023-06-14T13:49:10;25.10;42.70
26589;DHT22;14235;48.532;8.722;2023-06-14T13:51:36;25.20;40.60
26589;DHT22;14235;48.532;8.722;2023-06-14T13:54:01;25.10;40.30
26589;DHT22;14235;48.532;8.722;2023-06-14T13:56:27;25.00;40.60
26589;DHT22;14235;48.532;8.722;2023-06-14T13:58:53;25.00;41.10
26589;DHT22;14235;48.532;8.722;2023-06-14T14:01:18;25.00;41.90
26589;DHT22;14235;48.532;8.722;2023-06-14T14:03:46;25.10;41.60
26589;DHT22;14235;48.532;8.722;2023-06-14T14:06:12;25.20;41.00
26589;DHT22;14235;48.532;8.722;2023-06-14T14:08:38;25.40;41.00
26589;DHT22;14235;48.532;8.722;2023-06-14T14:11:05;25.50;41.30
26589;DHT22;14235;48.532;8.722;2023-06-14T14:13:31;25.70;39.80
26589;DHT22;14235;48.532;8.722;2023-06-14T14:15:57;25.80;39.40
26589;DHT22;14235;48.532;8.722;2023-06-14T14:18:22;25.90;39.90
26589;DHT22;14235;48.532;8.722;2023-06-14T14:20:48;26.10;38.90
26589;DHT22;14235;48.532;8.722;2023-06-14T14:23:14;26.30;39.50
26589;DHT22;14235;48.532;8.722;2023-06-14T14:25:40;26.40;40.00
26589;DHT22;14235;48.532;8.722;2023-06-14T14:28:05;26.60;40.20
26589;DHT22;14235;48.532;8.722;2023-06-14T14:30:31;26.70;37.30
26589;DHT22;14235;48.532;8.722;2023-06-14T14:32:57;26.90;37.50
26589;DHT22;14235;48.532;8.722;2023-06-14T14:35:22;27.10;38.20
26589;DHT22;14235;48.532;8.722;2023-06-14T14:37:49;27.20;36.70
26589;DHT22;14235;48.532;8.722;2023-06-14T14:40:15;27.30;36.70
26589;DHT22;14235;48.532;8.722;2023-06-14T14:42:41;27.50;37.30
26589;DHT22;14235;48.532;8.722;2023-06-14T14:45:07;27.70;39.00
26589;DHT22;14235;48.532;8.722;2023-06-14T14:49:58;28.20;35.30
26589;DHT22;14235;48.532;8.722;2023-06-14T14:52:24;28.30;35.70
26589;DHT22;14235;48.532;8.722;2023-06-14T14:54:50;28.40;35.80
26589;DHT22;14235;48.532;8.722;2023-06-14T14:57:16;28.50;35.10
26589;DHT22;14235;48.532;8.722;2023-06-14T14:59:41;28.60;34.80
26589;DHT22;14235;48.532;8.722;2023-06-14T15:02:07;28.60;35.30
26589;DHT22;14235;48.532;8.722;2023-06-14T15:04:32;28.90;35.30
26589;DHT22;14235;48.532;8.722;2023-06-14T15:06:58;29.00;34.80
26589;DHT22;14235;48.532;8.722;2023-06-14T15:09:23;29.00;34.30
26589;DHT22;14235;48.532;8.722;2023-06-14T15:11:49;29.00;35.00
26589;DHT22;14235;48.532;8.722;2023-06-14T15:16:41;29.40;55.30
26589;DHT22;14235;48.532;8.722;2023-06-14T15:19:06;29.50;60.00
26589;DHT22;14235;48.532;8.722;2023-06-14T15:21:32;29.70;53.00
26589;DHT22;14235;48.532;8.722;2023-06-14T15:23:57;29.80;51.10
26589;DHT22;14235;48.532;8.722;2023-06-14T15:26:23;29.70;48.90
26589;DHT22;14235;48.532;8.722;2023-06-14T15:28:50;29.40;53.70
26589;DHT22;14235;48.532;8.722;2023-06-14T15:31:15;29.30;53.70
26589;DHT22;14235;48.532;8.722;2023-06-14T15:36:07;30.00;31.70
26589;DHT22;14235;48.532;8.722;2023-06-14T15:38:35;30.10;32.10
26589;DHT22;14235;48.532;8.722;2023-06-14T15:41:01;30.40;31.80
26589;DHT22;14235;48.532;8.722;2023-06-14T15:43:26;30.60;35.90
26589;DHT22;14235;48.532;8.722;2023-06-14T15:45:52;30.90;31.40
26589;DHT22;14235;48.532;8.722;2023-06-14T15:48:17;31.20;32.50
26589;DHT22;14235;48.532;8.722;2023-06-14T15:50:43;31.50;33.90
26589;DHT22;14235;48.532;8.722;2023-06-14T15:53:08;31.50;39.30
26589;DHT22;14235;48.532;8.722;2023-06-14T15:55:34;31.50;39.90
26589;DHT22;14235;48.532;8.722;2023-06-14T15:58:00;31.80;42.50
26589;DHT22;14235;48.532;8.722;2023-06-14T16:00:25;31.80;44.00
26589;DHT22;14235;48.532;8.722;2023-06-14T16:02:51;31.80;42.10
26589;DHT22;14235;48.532;8.722;2023-06-14T16:05:17;31.90;41.30
26589;DHT22;14235;48.532;8.722;2023-06-14T16:07:42;32.00;40.80
26589;DHT22;14235;48.532;8.722;2023-06-14T16:10:08;31.80;39.80
26589;DHT22;14235;48.532;8.722;2023-06-14T16:12:34;32.10;40.40
26589;DHT22;14235;48.532;8.722;2023-06-14T16:14:59;32.10;40.40
26589;DHT22;14235;48.532;8.722;2023-06-14T16:17:25;32.30;39.30
26589;DHT22;14235;48.532;8.722;2023-06-14T16:19:51;32.30;38.50
26589;DHT22;14235;48.532;8.722;2023-06-14T16:22:17;32.30;37.90
26589;DHT22;14235;48.532;8.722;2023-06-14T16:24:43;32.30;38.60
26589;DHT22;14235;48.532;8.722;2023-06-14T16:27:08;32.20;38.70
26589;DHT22;14235;48.532;8.722;2023-06-14T16:29:36;32.40;39.10
26589;DHT22;14235;48.532;8.722;2023-06-14T16:32:02;32.30;38.90
26589;DHT22;14235;48.532;8.722;2023-06-14T16:34:28;32.30;39.20
26589;DHT22;14235;48.532;8.722;2023-06-14T16:36:56;32.30;38.90
26589;DHT22;14235;48.532;8.722;2023-06-14T16:39:21;32.30;38.60
26589;DHT22;14235;48.532;8.722;2023-06-14T16:41:47;32.10;39.10
26589;DHT22;14235;48.532;8.722;2023-06-14T16:44:12;32.10;39.00
26589;DHT22;14235;48.532;8.722;2023-06-14T16:46:39;32.00;39.20
26589;DHT22;14235;48.532;8.722;2023-06-14T16:49:05;32.00;39.30
26589;DHT22;14235;48.532;8.722;2023-06-14T16:51:31;31.70;39.70
26589;DHT22;14235;48.532;8.722;2023-06-14T16:53:56;31.60;40.20
26589;DHT22;14235;48.532;8.722;2023-06-14T16:56:23;31.50;40.60
26589;DHT22;14235;48.532;8.722;2023-06-14T16:58:56;31.40;40.40
26589;DHT22;14235;48.532;8.722;2023-06-14T17:01:23;31.30;40.80
26589;DHT22;14235;48.532;8.722;2023-06-14T17:03:49;30.80;40.70
26589;DHT22;14235;48.532;8.722;2023-06-14T17:06:15;30.40;41.10
26589;DHT22;14235;48.532;8.722;2023-06-14T17:08:41;30.00;41.50
26589;DHT22;14235;48.532;8.722;2023-06-14T17:11:07;29.70;41.50
26589;DHT22;14235;48.532;8.722;2023-06-14T17:13:33;29.30;42.30
26589;DHT22;14235;48.532;8.722;2023-06-14T17:16:00;28.90;42.00
26589;DHT22;14235;48.532;8.722;2023-06-14T17:18:26;28.60;44.00
26589;DHT22;14235;48.532;8.722;2023-06-14T17:20:52;28.50;45.10
26589;DHT22;14235;48.532;8.722;2023-06-14T17:23:17;28.40;46.20
26589;DHT22;14235;48.532;8.722;2023-06-14T17:25:43;28.20;46.40
26589;DHT22;14235;48.532;8.722;2023-06-14T17:28:08;28.30;46.70
26589;DHT22;14235;48.532;8.722;2023-06-14T17:30:34;28.30;46.50
26589;DHT22;14235;48.532;8.722;2023-06-14T17:32:59;28.30;46.10
26589;DHT22;14235;48.532;8.722;2023-06-14T17:35:25;28.40;46.40
26589;DHT22;14235;48.532;8.722;2023-06-14T17:37:51;28.40;46.30
26589;DHT22;14235;48.532;8.722;2023-06-14T17:40:16;28.40;45.90
26589;DHT22;14235;48.532;8.722;2023-06-14T17:42:42;28.50;45.50
26589;DHT22;14235;48.532;8.722;2023-06-14T17:45:08;28.30;46.40
26589;DHT22;14235;48.532;8.722;2023-06-14T17:47:33;28.40;46.40
26589;DHT22;14235;48.532;8.722;2023-06-14T17:49:59;28.10;46.10
26589;DHT22;14235;48.532;8.722;2023-06-14T17:52:28;28.00;45.90
26589;DHT22;14235;48.532;8.722;2023-06-14T17:54:53;28.00;47.20
26589;DHT22;14235;48.532;8.722;2023-06-14T17:57:19;28.00;47.40
26589;DHT22;14235;48.532;8.722;2023-06-14T17:59:44;27.90;47.90
26589;DHT22;14235;48.532;8.722;2023-06-14T18:02:11;28.00;48.40
26589;DHT22;14235;48.532;8.722;2023-06-14T18:04:36;28.00;48.50
26589;DHT22;14235;48.532;8.722;2023-06-14T18:07:02;28.10;48.80
26589;DHT22;14235;48.532;8.722;2023-06-14T18:09:28;28.10;49.00
26589;DHT22;14235;48.532;8.722;2023-06-14T18:11:54;28.00;49.00
26589;DHT22;14235;48.532;8.722;2023-06-14T18:14:21;28.00;49.20
26589;DHT22;14235;48.532;8.722;2023-06-14T18:16:47;28.00;49.70
26589;DHT22;14235;48.532;8.722;2023-06-14T18:19:12;27.80;49.90
26589;DHT22;14235;48.532;8.722;2023-06-14T18:26:42;27.30;50.90
26589;DHT22;14235;48.532;8.722;2023-06-14T18:29:08;27.20;51.40
26589;DHT22;14235;48.532;8.722;2023-06-14T18:31:33;27.00;51.70
26589;DHT22;14235;48.532;8.722;2023-06-14T18:33:59;26.80;52.50
26589;DHT22;14235;48.532;8.722;2023-06-14T18:36:25;26.60;53.40
26589;DHT22;14235;48.532;8.722;2023-06-14T18:38:50;26.50;54.00
26589;DHT22;14235;48.532;8.722;2023-06-14T18:41:16;26.30;57.80
26589;DHT22;14235;48.532;8.722;2023-06-14T18:43:42;26.10;58.60
26589;DHT22;14235;48.532;8.722;2023-06-14T18:46:09;25.90;59.90
26589;DHT22;14235;48.532;8.722;2023-06-14T18:48:35;25.70;57.30
26589;DHT22;14235;48.532;8.722;2023-06-14T18:51:02;25.50;60.00
26589;DHT22;14235;48.532;8.722;2023-06-14T18:58:20;24.80;54.80
26589;DHT22;14235;48.532;8.722;2023-06-14T19:03:12;24.50;56.30
26589;DHT22;14235;48.532;8.722;2023-06-14T19:05:38;24.50;55.00
26589;DHT22;14235;48.532;8.722;2023-06-14T19:08:04;24.40;52.50
26589;DHT22;14235;48.532;8.722;2023-06-14T19:10:31;24.30;52.80
26589;DHT22;14235;48.532;8.722;2023-06-14T19:12:56;24.10;53.70
26589;DHT22;14235;48.532;8.722;2023-06-14T19:15:22;23.90;55.40
26589;DHT22;14235;48.532;8.722;2023-06-14T19:17:55;23.70;56.70
26589;DHT22;14235;48.532;8.722;2023-06-14T19:20:22;23.50;56.90
26589;DHT22;14235;48.532;8.722;2023-06-14T19:30:06;22.50;68.80
26589;DHT22;14235;48.532;8.722;2023-06-14T19:34:59;22.10;91.50
26589;DHT22;14235;48.532;8.722;2023-06-14T19:37:24;22.00;68.60
26589;DHT22;14235;48.532;8.722;2023-06-14T19:39:50;21.80;68.00
26589;DHT22;14235;48.532;8.722;2023-06-14T19:42:15;21.70;68.30
26589;DHT22;14235;48.532;8.722;2023-06-14T19:44:41;21.70;68.10
26589;DHT22;14235;48.532;8.722;2023-06-14T19:47:07;21.70;68.60
26589;DHT22;14235;48.532;8.722;2023-06-14T19:49:32;21.70;68.30
26589;DHT22;14235;48.532;8.722;2023-06-14T19:51:58;21.70;68.10
26589;DHT22;14235;48.532;8.722;2023-06-14T19:54:23;21.70;68.20
26589;DHT22;14235;48.532;8.722;2023-06-14T19:56:49;21.80;68.40
26589;DHT22;14235;48.532;8.722;2023-06-14T19:59:14;21.70;68.60
26589;DHT22;14235;48.532;8.722;2023-06-14T20:01:40;21.70;69.30
26589;DHT22;14235;48.532;8.722;2023-06-14T20:04:05;21.70;69.60
26589;DHT22;14235;48.532;8.722;2023-06-14T20:06:31;21.60;69.60
26589;DHT22;14235;48.532;8.722;2023-06-14T20:08:57;21.50;70.30
26589;DHT22;14235;48.532;8.722;2023-06-14T20:21:06;21.00;70.10
26589;DHT22;14235;48.532;8.722;2023-06-14T20:23:32;21.00;70.50
26589;DHT22;14235;48.532;8.722;2023-06-14T20:25:57;20.90;69.20
26589;DHT22;14235;48.532;8.722;2023-06-14T20:28:23;20.80;70.00
26589;DHT22;14235;48.532;8.722;2023-06-14T20:30:49;20.70;70.60
26589;DHT22;14235;48.532;8.722;2023-06-14T20:33:14;20.60;70.80
26589;DHT22;14235;48.532;8.722;2023-06-14T20:35:40;20.70;71.40
26589;DHT22;14235;48.532;8.722;2023-06-14T20:38:06;20.50;72.40
26589;DHT22;14235;48.532;8.722;2023-06-14T20:42:57;20.30;77.70
26589;DHT22;14235;48.532;8.722;2023-06-14T20:45:28;20.30;70.60
26589;DHT22;14235;48.532;8.722;2023-06-14T20:47:57;20.10;71.40
26589;DHT22;14235;48.532;8.722;2023-06-14T20:50:22;20.00;71.80
26589;DHT22;14235;48.532;8.722;2023-06-14T20:52:48;20.00;72.80
26589;DHT22;14235;48.532;8.722;2023-06-14T20:55:13;19.90;73.80
26589;DHT22;14235;48.532;8.722;2023-06-14T20:57:41;19.80;74.30
26589;DHT22;14235;48.532;8.722;2023-06-14T21:00:07;19.80;75.20
26589;DHT22;14235;48.532;8.722;2023-06-14T21:02:39;19.70;76.50
26589;DHT22;14235;48.532;8.722;2023-06-14T21:05:06;19.60;79.40
26589;DHT22;14235;48.532;8.722;2023-06-14T21:07:33;19.50;79.80
26589;DHT22;14235;48.532;8.722;2023-06-14T21:09:59;19.40;74.50
26589;DHT22;14235;48.532;8.722;2023-06-14T21:12:25;19.40;77.60
26589;DHT22;14235;48.532;8.722;2023-06-14T21:14:50;19.30;74.70
26589;DHT22;14235;48.532;8.722;2023-06-14T21:17:16;19.20;75.00
26589;DHT22;14235;48.532;8.722;2023-06-14T21:19:42;19.10;76.20